Aérodrome :
LOGIN :

S'inscrire | Disclaimer

   EN    FR    IT 

 










Légende :    VFR   VFR Marginal   IFR   IFR Intensif   IFR Très Intensif
Visi : 
Plafond : 
>= 8 km
>= 3000ft
5 à 8 km
1000 à 3000 ft
1500m à 5 km
500 à 1000 ft
800 à 1500m
200 à 500 ft
< 800m
< 200 ft
Symboles :   Orages  Brouillard  Fortes neiges  Fortes précipitations  Vent > 20 kt
SIGMETs :   Divers  Orages  Givrage  Turbulence  Onde Orograph.  Cendres Volcan.







- Altitude de l'aérodrome : 545 ft
- Code IATA : PZY


LZPP - Piešťany

DERNIER METAR :
  • 170730Z 02005KT 0100 R01/0200N FG OVC002 10/10 Q1027

METARs EXPIRÉS :
  • 170700Z 01005KT 340V040 0100 R01/0225N FG OVC002 09/09 Q1027
  • 170630Z 02004KT 350V060 0100 R01/0200N FG OVC002 09/09 Q1027
  • 170600Z 01004KT 0100 R01/0200N FG OVC002 09/09 Q1027
  • 170530Z 03004KT 350V080 0100 R01/0200N FG OVC002 09/09 Q1026
  • 170500Z 02004KT 0100 R01/0225N FG OVC002 08/08 Q1026

TAF TAF LZPP
Valide du 17 à 06h jusqu'au 17 à 15h UTC


170500Z 1706/1715 VRB02KT 0200 FG BKN001
BECMG 1707/1709 3000 BCFG FEW002 SCT005
BECMG 1709/1711 17006KT CAVOK
Pas de NOTAMs connus pour ce terrain.



MET'MAP, la Météo Aéronautique d'un coup d'oeil ! - Copyright ORBIFLY Décembre 2007 - Disclaimer

ORBIFLY MET'MAP TEAM :

Programmation & Développement : Alexandra Zaïnal
Conception & Développement : Baudouin d'Aumeries
Co-Programmation & Développement : Marc-Olivier Méhu
Soutien technique & logistique : Manuel Goepfert

Contact : metmap@orbifly.com




SOURCES & CREDITS :

   NOAA